Time;durP1;ratioP1;P1;durP2;ratioP2;P2;SDS_P1;SDS_P2;PMS_P1;PMS_P2;Temp;Humidity;BMP_temperature;BMP_pressure;BME280_temperature;BME280_humidity;BME280_pressure;Samples;Min_cycle;Max_cycle;Signal;HPM_P1;HPM_P2
2024/02/20 00:00:06;;;;;;;109.25;58.30;;;;;;;10.44;83.58;101166.47;5096682;28;20063;-78
2024/02/20 00:03:17;;;;;;;88.88;50.97;;;;;;;10.41;83.05;101164.00;5096324;28;20048;-79
2024/02/20 00:06:22;;;;;;;100.88;53.63;;;;;;;10.33;83.46;101159.19;5096895;28;20055;-78
2024/02/20 00:09:27;;;;;;;66.60;40.97;;;;;;;10.38;82.67;101162.38;5096858;28;20043;-79
2024/02/20 00:12:33;;;;;;;79.28;44.15;;;;;;;10.10;84.02;101156.44;5096753;28;20055;-78
2024/02/20 00:15:37;;;;;;;79.80;42.38;;;;;;;9.87;85.56;101151.91;5096899;28;20048;-78
2024/02/20 00:18:42;;;;;;;74.97;41.72;;;;;;;10.05;85.01;101147.91;5096490;28;20059;-77
2024/02/20 00:21:47;;;;;;;76.82;41.78;;;;;;;10.18;85.75;101152.25;5095876;28;20044;-77
2024/02/20 00:24:52;;;;;;;69.95;38.53;;;;;;;10.40;84.56;101162.25;5096348;28;20052;-79
2024/02/20 00:27:57;;;;;;;58.42;35.83;;;;;;;10.35;84.12;101167.13;5096340;28;20051;-79
2024/02/20 00:31:02;;;;;;;66.85;38.58;;;;;;;10.12;85.85;101173.31;5096195;28;20398;-78
2024/02/20 00:34:07;;;;;;;66.63;38.05;;;;;;;10.08;85.12;101175.34;5096220;28;20063;-78
2024/02/20 00:37:11;;;;;;;68.32;37.92;;;;;;;10.10;85.76;101180.56;5096220;28;20043;-78
2024/02/20 00:40:16;;;;;;;56.58;35.42;;;;;;;9.88;85.18;101185.78;5096003;28;20040;-78
2024/02/20 00:43:21;;;;;;;62.08;36.95;;;;;;;10.11;84.83;101183.16;5096152;28;20054;-78
2024/02/20 00:46:26;;;;;;;63.80;38.28;;;;;;;9.97;85.38;101182.44;5095649;28;20382;-78
2024/02/20 00:49:30;;;;;;;65.85;37.05;;;;;;;9.91;85.14;101173.00;5095312;28;20055;-78
2024/02/20 00:52:35;;;;;;;63.85;37.97;;;;;;;10.17;84.26;101172.00;5095951;28;20374;-79
2024/02/20 00:55:40;;;;;;;65.97;37.92;;;;;;;10.24;84.01;101159.00;5095960;28;20142;-78
2024/02/20 00:58:45;;;;;;;65.47;39.45;;;;;;;9.81;85.44;101162.09;5083340;28;20044;-78
2024/02/20 01:01:53;;;;;;;78.30;42.15;;;;;;;9.74;86.81;101159.97;5095715;28;20051;-78
2024/02/20 01:04:58;;;;;;;80.45;45.22;;;;;;;9.82;87.00;101163.81;5096070;28;20051;-78
2024/02/20 01:08:03;;;;;;;66.55;40.72;;;;;;;9.81;86.47;101159.41;5094722;28;20497;-79
2024/02/20 01:11:08;;;;;;;76.07;42.67;;;;;;;9.77;87.12;101157.06;5095252;28;20059;-78
2024/02/20 01:14:13;;;;;;;73.53;42.97;;;;;;;9.68;87.61;101155.88;5095612;28;20055;-78
2024/02/20 01:17:17;;;;;;;75.25;42.53;;;;;;;9.62;87.64;101150.13;5095532;28;20051;-78
2024/02/20 01:20:22;;;;;;;72.07;41.63;;;;;;;9.49;88.40;101147.44;5095445;28;20399;-77
2024/02/20 01:23:27;;;;;;;69.75;41.38;;;;;;;9.33;87.95;101151.31;5095515;28;20051;-78
2024/02/20 01:26:31;;;;;;;67.05;40.08;;;;;;;9.34;87.22;101151.19;5095512;28;20114;-78
2024/02/20 01:29:36;;;;;;;65.07;39.50;;;;;;;9.19;87.41;101141.56;5095040;28;20062;-78
2024/02/20 01:32:40;;;;;;;67.10;38.33;;;;;;;8.92;88.62;101148.81;5094253;28;20494;-78
2024/02/20 01:35:45;;;;;;;66.35;39.13;;;;;;;8.87;88.08;101149.13;5094992;28;20047;-78
2024/02/20 01:38:50;;;;;;;66.55;39.15;;;;;;;8.87;88.96;101145.59;5095059;28;20094;-79
2024/02/20 01:41:57;;;;;;;66.85;38.13;;;;;;;8.93;88.44;101146.03;5094889;28;20473;-78
2024/02/20 01:45:02;;;;;;;69.13;36.35;;;;;;;8.86;88.70;101141.22;5094599;28;20055;-78
2024/02/20 01:48:08;;;;;;;72.22;38.38;;;;;;;8.70;89.36;101135.16;5094616;28;20066;-79
2024/02/20 01:51:13;;;;;;;70.72;38.10;;;;;;;9.02;88.21;101131.16;5094807;28;20060;-78
2024/02/20 01:54:18;;;;;;;68.75;37.70;;;;;;;9.01;87.66;101132.13;5094731;28;20051;-79
2024/02/20 01:57:23;;;;;;;64.38;36.50;;;;;;;9.09;87.30;101127.06;5094730;28;20055;-79
2024/02/20 02:00:28;;;;;;;62.53;34.63;;;;;;;9.16;86.50;101117.66;5093745;28;20051;-77
2024/02/20 02:03:34;;;;;;;65.90;37.20;;;;;;;9.12;86.48;101130.41;5094530;28;20039;-79
2024/02/20 02:06:39;;;;;;;59.00;34.15;;;;;;;9.01;86.89;101118.75;5094470;28;20051;-78
2024/02/20 02:09:44;;;;;;;63.50;34.45;;;;;;;9.12;86.44;101106.31;5094391;28;20051;-78
2024/02/20 02:12:48;;;;;;;58.28;33.92;;;;;;;9.03;86.75;101108.78;5094562;28;20039;-78
2024/02/20 02:15:54;;;;;;;60.67;35.72;;;;;;;9.22;86.62;101106.53;5094406;28;20058;-78
2024/02/20 02:18:59;;;;;;;55.47;32.78;;;;;;;9.17;86.29;101092.59;5094533;28;20154;-78
2024/02/20 02:22:04;;;;;;;55.97;31.48;;;;;;;9.21;86.02;101090.56;5094366;28;20071;-78
2024/02/20 02:25:09;;;;;;;60.67;32.55;;;;;;;9.12;85.67;101086.69;5094498;28;20051;-78
2024/02/20 02:28:14;;;;;;;55.05;30.15;;;;;;;8.79;87.13;101092.56;5094464;28;20047;-78
2024/02/20 02:31:18;;;;;;;54.08;31.38;;;;;;;8.97;86.16;101090.44;5094314;28;20055;-78
2024/02/20 02:34:24;;;;;;;52.67;29.88;;;;;;;9.08;85.98;101087.91;5093683;28;20051;-78
2024/02/20 02:37:43;;;;;;;46.67;28.65;;;;;;;9.10;85.46;101099.34;5094366;28;20059;-78
2024/02/20 02:40:48;;;;;;;46.10;28.33;;;;;;;9.14;85.45;101096.34;5094733;28;20051;-79
2024/02/20 02:43:53;;;;;;;53.20;30.60;;;;;;;9.24;85.09;101093.88;5093776;28;20051;-78
2024/02/20 02:46:58;;;;;;;47.70;29.35;;;;;;;9.25;85.10;101098.28;5093703;28;20048;-78
2024/02/20 02:50:03;;;;;;;46.10;28.45;;;;;;;9.53;83.77;101100.69;5093849;28;20051;-78
2024/02/20 02:53:08;;;;;;;45.95;28.00;;;;;;;9.78;83.11;101100.66;5093999;28;20059;-78
2024/02/20 02:56:14;;;;;;;54.75;29.38;;;;;;;9.75;82.65;101095.50;5094322;28;20047;-79
2024/02/20 02:59:18;;;;;;;51.03;31.75;;;;;;;9.39;83.61;101100.84;5092927;28;20394;-78
2024/02/20 03:02:24;;;;;;;53.28;29.63;;;;;;;9.40;84.11;101104.38;5093866;28;20486;-79
2024/02/20 03:05:31;;;;;;;50.92;30.33;;;;;;;9.49;83.66;101104.56;5093825;28;20056;-78
2024/02/20 03:08:37;;;;;;;59.05;31.77;;;;;;;9.43;83.92;101113.03;5093683;28;20498;-78
2024/02/20 03:11:42;;;;;;;53.00;28.48;;;;;;;9.67;82.79;101113.13;5093795;28;20051;-78
2024/02/20 03:14:48;;;;;;;51.08;29.48;;;;;;;9.57;82.72;101114.75;5092974;28;20039;-78
2024/02/20 03:17:52;;;;;;;46.70;27.80;;;;;;;9.80;82.05;101117.47;5093651;28;20047;-77
2024/02/20 03:20:58;;;;;;;49.83;27.80;;;;;;;10.14;81.06;101115.91;5093696;28;20047;-79
2024/02/20 03:24:06;;;;;;;47.30;27.80;;;;;;;10.25;79.62;101126.69;5092456;28;20029;-79
2024/02/20 03:27:11;;;;;;;45.10;29.52;;;;;;;10.35;79.53;101125.03;5093850;28;20054;-78
2024/02/20 03:30:16;;;;;;;54.53;28.80;;;;;;;10.21;79.91;101132.41;5093448;28;20055;-78
2024/02/20 03:33:21;;;;;;;46.55;27.55;;;;;;;9.90;80.80;101130.22;5092668;28;20067;-78
2024/02/20 03:36:26;;;;;;;47.67;27.48;;;;;;;10.00;80.78;101133.97;5093668;28;20054;-77
2024/02/20 03:39:30;;;;;;;44.38;27.60;;;;;;;9.99;80.38;101121.50;5093756;28;20044;-77
2024/02/20 03:42:37;;;;;;;47.35;28.67;;;;;;;9.81;81.88;101140.66;5093583;28;20047;-78
2024/02/20 03:45:42;;;;;;;52.25;30.35;;;;;;;9.56;82.68;101140.69;5093610;28;20055;-77
2024/02/20 03:48:47;;;;;;;46.97;29.00;;;;;;;9.62;82.44;101140.25;5092032;28;20059;-77
2024/02/20 03:51:51;;;;;;;56.92;30.00;;;;;;;9.80;82.21;101143.44;5092561;28;20063;-78
2024/02/20 03:54:56;;;;;;;54.75;30.42;;;;;;;9.79;81.29;101142.59;5093678;28;20059;-77
2024/02/20 03:58:01;;;;;;;47.72;27.30;;;;;;;9.69;82.22;101141.53;5092541;28;20043;-78
2024/02/20 04:01:06;;;;;;;56.30;31.63;;;;;;;9.79;82.07;101147.94;5091141;28;20514;-77
2024/02/20 04:04:11;;;;;;;50.40;29.25;;;;;;;9.52;83.21;101141.88;5096772;28;20047;-78
2024/02/20 04:07:16;;;;;;;52.38;30.58;;;;;;;9.70;82.28;101137.88;5096340;28;20051;-78
2024/02/20 04:10:21;;;;;;;50.53;29.77;;;;;;;9.89;81.90;101156.19;5096549;28;20051;-78
2024/02/20 04:13:25;;;;;;;49.20;29.88;;;;;;;9.94;81.79;101154.03;5096412;28;20071;-82
2024/02/20 04:16:30;;;;;;;47.67;28.75;;;;;;;9.72;82.53;101152.03;5095594;28;20051;-78
2024/02/20 04:19:34;;;;;;;55.10;29.20;;;;;;;9.55;82.80;101141.66;5096641;28;20071;-77
2024/02/20 04:22:38;;;;;;;48.15;28.08;;;;;;;9.28;83.14;101146.28;5096466;28;20059;-76
2024/02/20 04:25:43;;;;;;;51.78;27.05;;;;;;;9.56;82.60;101139.81;5096440;28;20063;-78
2024/02/20 04:28:48;;;;;;;47.17;26.70;;;;;;;9.85;80.87;101137.75;5096310;28;20051;-77
2024/02/20 04:31:55;;;;;;;44.92;26.45;;;;;;;10.14;80.09;101137.38;5096056;28;20055;-78
2024/02/20 04:35:00;;;;;;;48.08;26.10;;;;;;;9.38;81.04;101141.13;5096126;28;20425;-77
2024/02/20 04:38:05;;;;;;;41.28;25.60;;;;;;;9.28;83.28;101129.34;5096409;28;20401;-77
2024/02/20 04:41:11;;;;;;;41.20;24.98;;;;;;;9.83;80.91;101145.88;5096272;28;20055;-78
2024/02/20 04:44:16;;;;;;;42.22;25.52;;;;;;;10.34;79.93;101160.06;5094865;28;20390;-76
2024/02/20 04:47:21;;;;;;;46.60;27.02;;;;;;;10.09;80.39;101160.09;5095763;28;20039;-77
2024/02/20 04:50:25;;;;;;;46.72;26.67;;;;;;;10.01;81.10;101167.84;5095927;28;20047;-77
2024/02/20 04:53:30;;;;;;;42.17;24.92;;;;;;;9.88;81.85;101167.00;5095047;28;20032;-77
2024/02/20 04:56:34;;;;;;;42.55;24.55;;;;;;;9.87;81.96;101168.84;5095727;28;20049;-77
2024/02/20 04:59:41;;;;;;;44.28;25.70;;;;;;;9.96;82.26;101178.03;5095956;28;20039;-78
2024/02/20 05:02:46;;;;;;;44.38;25.40;;;;;;;9.91;82.55;101170.34;5095992;28;20055;-78
2024/02/20 05:05:51;;;;;;;44.92;26.70;;;;;;;10.55;80.84;101160.25;5096001;28;20055;-78
2024/02/20 05:08:56;;;;;;;42.92;26.42;;;;;;;10.87;78.95;101164.91;5095665;28;20047;-78
2024/02/20 05:12:01;;;;;;;43.65;25.10;;;;;;;9.89;81.96;101168.72;5095338;28;20396;-78
2024/02/20 05:15:07;;;;;;;42.30;25.52;;;;;;;9.86;82.73;101174.31;5094466;28;20094;-78
2024/02/20 05:18:13;;;;;;;48.65;28.50;;;;;;;10.41;81.47;101172.03;5095335;28;20482;-78
2024/02/20 05:21:18;;;;;;;46.35;27.05;;;;;;;10.29;81.40;101176.50;5094850;28;20382;-78
2024/02/20 05:24:23;;;;;;;45.28;28.10;;;;;;;10.47;80.44;101166.19;5095107;28;20055;-77
2024/02/20 05:27:28;;;;;;;47.45;29.27;;;;;;;11.30;77.86;101177.75;5094035;28;20106;-77
2024/02/20 05:30:36;;;;;;;54.70;29.90;;;;;;;10.26;81.17;101178.53;5094965;28;20048;-78
2024/02/20 05:33:41;;;;;;;54.75;31.67;;;;;;;10.39;81.76;101171.31;5094950;28;20059;-78
2024/02/20 05:36:46;;;;;;;55.47;31.42;;;;;;;10.06;83.21;101166.53;5094858;28;20496;-77
2024/02/20 05:39:50;;;;;;;55.97;32.13;;;;;;;11.16;81.46;101167.22;5094992;28;20055;-78
2024/02/20 05:42:55;;;;;;;54.63;32.42;;;;;;;11.30;80.29;101169.69;5094900;28;20067;-77
2024/02/20 05:46:00;;;;;;;68.43;38.17;;;;;;;11.28;80.10;101168.94;5094767;28;20047;-77
2024/02/20 05:49:05;;;;;;;62.83;36.55;;;;;;;11.16;80.44;101165.38;5094174;28;20056;-77
2024/02/20 05:52:10;;;;;;;67.18;37.15;;;;;;;10.56;84.58;101170.91;5094566;28;20504;-78
2024/02/20 05:55:15;;;;;;;70.60;39.05;;;;;;;9.52;86.25;101182.06;5094638;28;20059;-78
2024/02/20 05:58:20;;;;;;;62.83;35.60;;;;;;;10.22;87.33;101183.25;5094244;28;20055;-77
2024/02/20 06:01:24;;;;;;;65.68;36.35;;;;;;;10.69;83.73;101186.97;5094568;28;20044;-77
2024/02/20 06:04:29;;;;;;;64.65;37.17;;;;;;;9.58;86.70;101199.56;5094635;28;20048;-78
2024/02/20 06:07:33;;;;;;;65.95;35.10;;;;;;;9.34;87.99;101204.78;5094599;28;20043;-78
2024/02/20 06:10:38;;;;;;;64.13;36.28;;;;;;;9.33;88.30;101205.75;5094381;28;20047;-77
2024/02/20 06:13:44;;;;;;;62.80;34.88;;;;;;;9.13;88.39;101198.25;5094510;28;20047;-78
2024/02/20 06:16:49;;;;;;;56.30;32.72;;;;;;;9.10;87.71;101193.94;5091832;28;20055;-78
2024/02/20 06:19:53;;;;;;;64.00;32.55;;;;;;;10.37;83.21;101197.38;5094006;28;20044;-78
2024/02/20 06:22:59;;;;;;;50.55;28.35;;;;;;;10.56;80.51;101191.53;5093615;28;20047;-78
2024/02/20 06:26:07;;;;;;;49.20;27.13;;;;;;;10.63;78.60;101193.63;5094118;28;20040;-77
2024/02/20 06:29:12;;;;;;;41.13;25.10;;;;;;;9.98;80.27;101186.81;5093979;28;20040;-78
2024/02/20 06:32:17;;;;;;;44.92;27.20;;;;;;;9.14;84.22;101189.22;5093941;28;20055;-78
2024/02/20 06:35:22;;;;;;;47.25;26.45;;;;;;;9.33;84.28;101192.38;5093109;28;20051;-78
2024/02/20 06:38:32;;;;;;;49.60;26.73;;;;;;;10.10;81.68;101186.81;5093930;28;20051;-78
2024/02/20 06:41:45;;;;;;;43.10;24.10;;;;;;;9.87;82.11;101178.72;5090492;28;20043;-80
2024/02/20 06:44:52;;;;;;;42.88;24.77;;;;;;;9.98;80.65;101189.50;5099033;28;20051;-80
2024/02/20 06:47:57;;;;;;;43.08;25.55;;;;;;;9.79;81.63;101187.31;5098615;28;20055;-79
2024/02/20 06:51:03;;;;;;;48.35;25.75;;;;;;;11.00;76.76;101197.94;5101144;28;20045;-80
2024/02/20 06:54:08;;;;;;;47.35;26.83;;;;;;;11.53;74.03;101201.03;5106173;28;20050;-79
2024/02/20 06:57:13;;;;;;;44.88;26.88;;;;;;;10.86;78.06;101210.72;5113854;28;20047;-80
2024/02/20 07:00:17;;;;;;;47.30;26.20;;;;;;;9.90;78.99;101214.19;5114027;28;20414;-80
2024/02/20 07:03:22;;;;;;;45.08;26.13;;;;;;;10.08;79.79;101206.66;5114032;28;20051;-80
2024/02/20 07:06:31;;;;;;;40.88;24.73;;;;;;;10.57;78.93;101215.56;5113832;28;20059;-80
2024/02/20 07:09:36;;;;;;;43.42;25.45;;;;;;;11.15;76.97;101216.56;5113912;28;20039;-79
2024/02/20 07:12:41;;;;;;;42.28;23.60;;;;;;;10.89;76.71;101215.81;5113623;28;20048;-79
2024/02/20 07:15:46;;;;;;;49.47;26.98;;;;;;;11.11;75.40;101216.78;5093478;28;20386;-79
2024/02/20 07:18:51;;;;;;;48.28;25.70;;;;;;;12.20;69.70;101216.22;5093219;28;20047;-79
2024/02/20 07:21:56;;;;;;;43.33;26.48;;;;;;;11.76;73.08;101221.59;5093385;28;20047;-79
2024/02/20 07:25:01;;;;;;;55.58;27.30;;;;;;;12.04;72.53;101222.97;5093532;28;20379;-79
2024/02/20 07:28:06;;;;;;;51.10;28.83;;;;;;;12.15;72.08;101223.78;5101704;28;20495;-79
2024/02/20 07:31:10;;;;;;;46.38;26.10;;;;;;;12.55;71.05;101223.25;5113426;28;20051;-79
2024/02/20 07:34:15;;;;;;;53.75;26.50;;;;;;;13.45;67.81;101226.34;5111322;28;20058;-80
2024/02/20 07:37:20;;;;;;;46.38;27.00;;;;;;;12.78;69.64;101233.00;5117796;28;20101;-81
2024/02/20 07:40:24;;;;;;;46.03;26.23;;;;;;;12.60;70.71;101245.25;5117473;28;20062;-79
2024/02/20 07:43:29;;;;;;;45.78;26.50;;;;;;;12.70;70.92;101240.84;5116046;28;20410;-79
2024/02/20 07:46:33;;;;;;;53.47;27.80;;;;;;;12.97;69.62;101243.94;5104695;28;20051;-79
2024/02/20 07:49:38;;;;;;;41.92;27.20;;;;;;;13.23;68.39;101248.03;5115719;28;20036;-80
2024/02/20 07:52:45;;;;;;;48.08;28.08;;;;;;;13.43;67.64;101246.34;5115527;27;20050;-73
2024/02/20 07:55:50;;;;;;;48.50;28.42;;;;;;;13.89;66.65;101259.41;5116082;28;20051;-75
2024/02/20 07:58:55;;;;;;;45.88;26.23;;;;;;;14.52;64.90;101263.66;5117010;28;20410;-74
2024/02/20 08:02:02;;;;;;;45.22;26.95;;;;;;;15.16;62.83;101272.22;5117092;28;20044;-73
2024/02/20 08:05:11;;;;;;;45.10;26.52;;;;;;;16.37;58.74;101271.44;5117019;28;20046;-74
2024/02/20 08:08:16;;;;;;;42.35;27.38;;;;;;;17.91;53.74;101274.72;5116977;28;20051;-74
2024/02/20 08:11:21;;;;;;;44.30;27.80;;;;;;;19.14;49.82;101268.66;5115858;28;20054;-79
2024/02/20 08:14:25;;;;;;;38.78;25.02;;;;;;;20.29;46.48;101266.59;5114643;28;20043;-79
2024/02/20 08:17:30;;;;;;;43.40;26.25;;;;;;;21.27;42.81;101274.16;5108093;28;20048;-75
2024/02/20 08:20:35;;;;;;;37.03;26.55;;;;;;;22.05;41.49;101282.03;5083578;28;20055;-72
2024/02/20 08:23:43;;;;;;;39.97;28.45;;;;;;;22.48;39.51;101275.75;5096328;28;20047;-72
2024/02/20 08:26:49;;;;;;;42.60;28.55;;;;;;;23.09;39.01;101276.31;5091648;28;20059;-74
2024/02/20 08:29:55;;;;;;;41.83;29.98;;;;;;;23.31;38.73;101272.56;5096172;28;20051;-77
2024/02/20 08:33:03;;;;;;;43.78;31.52;;;;;;;24.23;37.48;101285.25;5103232;27;20050;-72
2024/02/20 08:36:08;;;;;;;49.33;36.08;;;;;;;23.81;38.55;101291.63;5116056;27;20051;-78
2024/02/20 08:39:14;;;;;;;48.85;35.10;;;;;;;24.73;36.80;101295.03;5105533;28;20047;-79
2024/02/20 08:42:19;;;;;;;53.05;33.95;;;;;;;25.10;36.45;101300.09;5116333;27;20043;-80
2024/02/20 08:45:24;;;;;;;47.92;34.67;;;;;;;24.93;37.10;101293.28;5104675;27;20051;-82
2024/02/20 08:48:29;;;;;;;50.95;36.00;;;;;;;25.70;36.09;101295.59;5114343;28;20039;-78
2024/02/20 08:51:34;;;;;;;44.53;34.40;;;;;;;26.31;34.51;101293.47;5105348;27;20047;-80
2024/02/20 08:54:39;;;;;;;47.13;35.03;;;;;;;26.71;33.85;101294.22;5114145;28;20031;-78
2024/02/20 08:57:44;;;;;;;43.05;32.85;;;;;;;27.03;33.84;101298.81;5113973;28;20047;-78
2024/02/20 09:00:48;;;;;;;43.38;32.00;;;;;;;27.13;33.99;101288.16;5114161;28;20493;-79
2024/02/20 09:03:56;;;;;;;44.17;34.22;;;;;;;27.35;33.19;101294.16;5103091;28;20394;-80
2024/02/20 09:07:01;;;;;;;43.97;33.40;;;;;;;27.68;32.45;101295.66;5083521;28;20051;-79
2024/02/20 09:10:06;;;;;;;41.58;33.35;;;;;;;27.65;32.71;101298.84;5094616;28;20055;-79
2024/02/20 09:13:11;;;;;;;45.92;34.70;;;;;;;27.61;32.92;101316.94;5100427;28;20101;-79
2024/02/20 09:16:16;;;;;;;57.33;45.22;;;;;;;27.26;33.33;101312.88;5115029;28;20054;-79
2024/02/20 09:19:21;;;;;;;56.42;42.80;;;;;;;27.32;33.95;101317.53;5111301;28;20055;-80
2024/02/20 09:22:26;;;;;;;52.15;41.45;;;;;;;27.32;34.02;101325.78;5114228;28;20136;-79
2024/02/20 09:25:30;;;;;;;57.50;45.17;;;;;;;27.02;34.60;101320.00;5102237;28;20043;-80
2024/02/20 09:28:36;;;;;;;62.88;45.80;;;;;;;25.40;36.98;101308.84;5114915;28;20501;-80
2024/02/20 09:31:41;;;;;;;61.00;45.17;;;;;;;24.68;38.30;101322.28;5109776;27;20510;-79
2024/02/20 09:34:46;;;;;;;61.58;45.17;;;;;;;24.53;39.68;101329.78;5101535;28;20054;-79
2024/02/20 09:37:50;;;;;;;54.92;43.65;;;;;;;24.69;39.49;101323.94;5114725;28;20066;-80
2024/02/20 09:40:55;;;;;;;60.40;44.42;;;;;;;25.11;38.60;101306.41;5100337;28;20055;-80
2024/02/20 09:44:00;;;;;;;65.50;48.03;;;;;;;24.51;39.39;101320.91;5114526;28;20405;-80
2024/02/20 09:47:05;;;;;;;58.17;46.22;;;;;;;24.00;41.42;101328.50;5114443;28;20375;-80
2024/02/20 09:50:12;;;;;;;66.28;47.15;;;;;;;23.15;44.51;101327.59;5093902;28;20063;-80
2024/02/20 09:53:18;;;;;;;68.22;49.83;;;;;;;22.62;45.58;101318.69;5089931;28;20043;-79
2024/02/20 09:56:24;;;;;;;64.45;48.45;;;;;;;22.02;47.50;101320.72;5099544;28;20418;-79
2024/02/20 09:59:28;;;;;;;68.55;50.88;;;;;;;21.60;48.69;101328.53;5114435;28;20050;-81
2024/02/20 10:02:34;;;;;;;73.85;53.30;;;;;;;20.33;51.59;101329.81;5061509;28;20036;-81
2024/02/20 10:05:47;;;;;;;71.20;51.85;;;;;;;19.86;54.14;101327.81;5105977;28;20044;-80
2024/02/20 10:08:54;;;;;;;67.50;48.33;;;;;;;19.61;55.06;101336.13;5114001;28;20496;-80
2024/02/20 10:11:59;;;;;;;60.22;46.80;;;;;;;19.66;55.26;101337.34;5109726;28;20066;-81
2024/02/20 10:15:10;;;;;;;63.00;44.13;;;;;;;19.70;54.68;101333.22;5103971;28;20402;-80
2024/02/20 10:18:17;;;;;;;68.07;45.90;;;;;;;19.65;55.14;101334.78;5092921;28;20396;-80
2024/02/20 10:21:23;;;;;;;70.45;50.30;;;;;;;19.69;55.28;101347.03;5093383;28;20051;-80
2024/02/20 10:24:29;;;;;;;73.30;51.83;;;;;;;19.22;57.54;101349.47;5101996;28;20401;-79
2024/02/20 10:27:38;;;;;;;71.22;50.42;;;;;;;18.95;58.89;101352.44;5106281;28;20055;-80
2024/02/20 10:30:43;;;;;;;75.70;50.95;;;;;;;18.89;59.23;101347.69;5091839;28;20347;-80
2024/02/20 10:33:51;;;;;;;69.57;51.65;;;;;;;18.70;60.59;101349.63;5092464;28;20414;-80
2024/02/20 10:37:05;;;;;;;68.35;49.95;;;;;;;18.61;60.19;101353.34;5080772;28;20051;-80
2024/02/20 10:40:15;;;;;;;72.07;51.55;;;;;;;18.88;59.91;101351.41;5092603;28;20344;-79
2024/02/20 10:43:20;;;;;;;70.72;50.17;;;;;;;18.89;60.67;101342.25;5092775;28;20047;-80
2024/02/20 10:46:31;;;;;;;74.88;50.97;;;;;;;18.63;60.80;101347.72;5080551;28;20063;-80
2024/02/20 10:49:37;;;;;;;72.50;51.42;;;;;;;18.50;61.86;101348.16;5118152;27;20326;-79
2024/02/20 10:52:44;;;;;;;68.03;47.92;;;;;;;18.06;62.36;101351.91;5105129;28;20489;-81
2024/02/20 10:55:52;;;;;;;67.43;49.80;;;;;;;18.02;63.40;101345.09;5100750;28;20051;-81
2024/02/20 10:58:58;;;;;;;67.38;47.95;;;;;;;18.20;63.54;101344.03;5111330;28;20051;-80
2024/02/20 11:02:03;;;;;;;62.95;44.35;;;;;;;18.00;63.42;101342.53;5112191;28;20071;-80
2024/02/20 11:05:13;;;;;;;69.97;48.72;;;;;;;18.00;64.07;101336.25;5113392;28;20051;-78
2024/02/20 11:08:25;;;;;;;67.35;49.15;;;;;;;18.00;64.28;101330.81;5112291;28;20395;-80
2024/02/20 11:11:29;;;;;;;68.75;48.22;;;;;;;17.89;65.63;101331.94;5102454;28;20418;-80
2024/02/20 11:14:35;;;;;;;65.95;47.97;;;;;;;18.14;64.80;101327.53;5103094;28;20052;-79
2024/02/20 11:17:40;;;;;;;66.53;47.95;;;;;;;17.99;65.29;101318.25;5114086;28;20394;-79
2024/02/20 11:20:45;;;;;;;60.45;43.92;;;;;;;17.97;65.29;101325.72;5112998;28;20066;-80
2024/02/20 11:23:50;;;;;;;67.00;45.95;;;;;;;18.14;64.69;101322.09;5114320;28;20051;-80
2024/02/20 11:27:00;;;;;;;60.13;44.35;;;;;;;18.12;64.25;101311.38;5129505;27;20065;-78
2024/02/20 11:30:13;;;;;;;71.35;48.22;;;;;;;18.05;64.80;101313.03;5109015;27;20054;-79
2024/02/20 11:33:18;;;;;;;69.05;49.72;;;;;;;17.94;65.39;101301.56;5114643;27;20050;-80
2024/02/20 11:36:24;;;;;;;74.13;52.08;;;;;;;17.73;67.47;101295.63;5114536;28;20505;-79
2024/02/20 11:39:29;;;;;;;72.18;50.53;;;;;;;17.74;67.86;101286.47;5107950;28;20058;-79
2024/02/20 11:42:33;;;;;;;66.85;47.08;;;;;;;17.73;67.26;101290.19;5109192;28;20046;-79
2024/02/20 11:45:38;;;;;;;61.70;44.63;;;;;;;17.57;67.08;101290.94;5109346;28;20508;-78
2024/02/20 11:48:46;;;;;;;62.53;45.75;;;;;;;17.52;67.32;101282.41;5108436;27;20056;-80
2024/02/20 11:51:50;;;;;;;57.80;42.25;;;;;;;17.25;67.60;101268.88;5110762;28;20051;-80
2024/02/20 11:55:06;;;;;;;63.03;43.72;;;;;;;17.34;68.08;101268.81;5110097;27;20141;-79
2024/02/20 11:58:19;;;;;;;62.70;43.35;;;;;;;17.34;68.37;101268.81;5112529;27;20389;-79
2024/02/20 12:01:26;;;;;;;61.70;43.83;;;;;;;17.50;68.03;101268.94;5099718;27;20055;-78
2024/02/20 12:04:31;;;;;;;64.43;42.60;;;;;;;17.36;67.86;101264.06;5101502;28;20055;-79
2024/02/20 12:07:36;;;;;;;65.65;44.08;;;;;;;17.34;68.37;101268.81;5108886;27;20400;-80
2024/02/20 12:10:41;;;;;;;63.53;42.10;;;;;;;17.59;67.09;101260.91;5108710;28;20165;-79
2024/02/20 12:13:50;;;;;;;53.88;38.72;;;;;;;17.63;65.72;101254.16;5110351;27;20048;-78
2024/02/20 12:16:58;;;;;;;53.63;37.65;;;;;;;17.38;66.48;101253.06;5109893;28;20044;-78
2024/02/20 12:20:09;;;;;;;56.67;40.00;;;;;;;17.62;67.23;101255.16;5110836;28;20521;-78
2024/02/20 12:23:19;;;;;;;57.83;40.92;;;;;;;17.66;66.79;101251.97;5112548;28;20040;-78
2024/02/20 12:26:25;;;;;;;57.90;38.55;;;;;;;17.57;66.99;101246.63;5112423;27;20043;-78
2024/02/20 12:29:30;;;;;;;50.00;37.25;;;;;;;17.63;67.31;101246.84;5094967;27;20051;-79
2024/02/20 12:32:35;;;;;;;51.78;36.78;;;;;;;17.78;65.41;101236.25;5106513;27;20051;-79
2024/02/20 12:35:40;;;;;;;50.25;35.13;;;;;;;17.79;65.31;101243.41;5106827;28;20044;-77
2024/02/20 12:38:44;;;;;;;48.60;35.10;;;;;;;17.67;65.09;101241.97;5107621;27;20449;-78
2024/02/20 12:41:49;;;;;;;48.50;36.05;;;;;;;17.77;65.38;101240.84;5107864;28;20047;-79
2024/02/20 12:44:54;;;;;;;51.78;37.40;;;;;;;17.39;67.18;101236.63;5108753;28;20046;-79
2024/02/20 12:47:58;;;;;;;50.60;36.92;;;;;;;17.43;67.43;101229.84;5097222;28;20054;-80
2024/02/20 12:51:03;;;;;;;51.92;35.70;;;;;;;17.45;66.67;101227.84;5110116;28;20054;-80
2024/02/20 12:54:08;;;;;;;46.13;32.30;;;;;;;17.36;66.83;101234.22;5100533;28;20062;-78
2024/02/20 12:57:12;;;;;;;45.28;32.45;;;;;;;17.39;67.71;101225.75;5113391;28;20050;-77
2024/02/20 13:00:17;;;;;;;42.78;30.20;;;;;;;17.57;66.90;101224.91;5113323;28;20039;-77
2024/02/20 13:03:22;;;;;;;42.90;30.45;;;;;;;17.73;64.25;101217.72;5113303;28;20403;-77
2024/02/20 13:06:27;;;;;;;45.92;31.95;;;;;;;17.67;65.48;101212.09;5100729;28;20043;-77
2024/02/20 13:09:32;;;;;;;46.03;33.20;;;;;;;17.64;66.18;101207.84;5113144;28;20040;-78
2024/02/20 13:12:37;;;;;;;43.65;31.85;;;;;;;17.40;65.11;101199.47;5115194;28;20494;-78
2024/02/20 13:15:41;;;;;;;39.50;29.13;;;;;;;17.45;65.48;101200.69;5115683;28;20051;-78
2024/02/20 13:18:47;;;;;;;45.92;32.25;;;;;;;17.66;65.77;101196.81;5115395;28;20091;-78
2024/02/20 13:21:51;;;;;;;42.15;29.63;;;;;;;17.62;65.80;101190.84;5115780;28;20504;-78
2024/02/20 13:24:57;;;;;;;42.75;32.53;;;;;;;17.47;65.91;101193.25;5115608;28;20047;-78
2024/02/20 13:28:01;;;;;;;45.35;32.30;;;;;;;17.54;66.75;101194.38;5114605;28;20043;-78
2024/02/20 13:31:06;;;;;;;44.05;31.75;;;;;;;17.42;67.16;101187.47;5102624;28;20047;-78
2024/02/20 13:34:10;;;;;;;48.75;31.45;;;;;;;17.51;67.46;101193.78;5115497;28;20047;-78
2024/02/20 13:37:15;;;;;;;44.30;32.63;;;;;;;17.62;65.88;101192.72;5115131;28;20055;-78
2024/02/20 13:40:20;;;;;;;43.92;30.20;;;;;;;17.54;66.07;101179.94;5115336;28;20066;-78
2024/02/20 13:43:25;;;;;;;42.35;31.48;;;;;;;17.62;66.33;101176.41;5102852;28;20478;-78
2024/02/20 13:46:30;;;;;;;44.00;30.15;;;;;;;17.51;65.40;101183.78;5115205;28;20047;-78
2024/02/20 13:49:36;;;;;;;43.25;30.70;;;;;;;17.34;66.13;101172.97;5114249;28;20050;-78
2024/02/20 13:52:42;;;;;;;43.30;29.55;;;;;;;17.39;66.17;101181.47;5114889;28;20043;-77
2024/02/20 13:55:49;;;;;;;42.85;29.73;;;;;;;17.43;65.57;101169.31;5114918;28;20066;-78
2024/02/20 13:58:53;;;;;;;36.92;27.63;;;;;;;17.54;65.34;101174.50;5101975;28;20406;-79
2024/02/20 14:01:59;;;;;;;39.20;29.30;;;;;;;17.51;63.92;101164.78;5113521;27;20071;-82
2024/02/20 14:05:05;;;;;;;36.83;27.35;;;;;;;17.53;63.44;101170.94;5098454;28;20105;-80